CCGS Sir Wilfrid Laurier — CGJK — position and weather

sailwx.info

Track history (hours):
 
Tides and Currents Weather Stations Pressure Air Temp Water Temp Dewpoint Dewpoint Depression Visibility Wind Speed Wind Dir Waves Ship Positions

Oceanographic research ship CCGS Sir Wilfrid Laurier (Canada)

Detailed information on ship capabilities available from ARCUS's ALIAS (Arctic Logistics Information and Support) project.

Last reported at 2018-Apr-20 23:00 UTC. Time now 2018-Apr-21 00:21 UTC.
Position N 49°36' W 126°30'.

Length 83 m; beam 16.2 m; draft 6 m.

Type: SAR. MMSI: 316052000.

Wind from 070 at 4 knots

Barometer 1019.3 mb
Air temperature 8.1 ° C
Dewpoint 6.6 ° C

Date/timePositionNaut miles runAvg speedWind from/ knotsBaromVisibWave heightAir tempDewpointWater temp
2018-Apr-20 23:00N 49°36' W 126°30'0 0.0 070 / 41019.3 8.1 6.6
2018-Apr-20 22:00N 49°36' W 126°30'4 3.9 070 / 31020.3 8.1 6.8
2018-Apr-20 21:00N 49°36' W 126°24'4 3.9 210 / 11020.8 8.3 7.4
2018-Apr-20 20:00N 49°36' W 126°30'4 3.9 030 / 41021.0 7.9 6.810.1
2018-Apr-20 19:00N 49°36' W 126°24'0 0.0 080 / 21021.5 7.8 6.410.0
2018-Apr-20 18:00N 49°36' W 126°24'4 3.9 120 / 41021.8 7.7 6.4 9.8
2018-Apr-20 17:00N 49°36' W 126°30'10 9.8 020 / 21021.8 7.8 6.810.2
2018-Apr-20 16:00N 49°30' W 126°42'1212.0 140 / 191022.2 8.5 7.810.1
2018-Apr-20 15:00N 49°18' W 126°42'8 7.8 160 / 121022.4 8.9 8.210.3
2018-Apr-20 14:00N 49°18' W 126°30'10 9.9 170 / 91022.4 8.7 7.910.2
2018-Apr-20 13:00N 49°24' W 126°42'8 7.8 130 / 131022.2 8.5 8.010.1
2018-Apr-20 12:00N 49°24' W 126°54'6 6.0 130 / 171022.0 8.4 7.410.0
2018-Apr-20 11:00N 49°30' W 126°54'10 9.8 120 / 201022.6 8.1 7.610.0
2018-Apr-20 10:00N 49°36' W 127°06'8 7.8 140 / 131023.4 8.8 7.9 9.9
2018-Apr-20 09:00N 49°36' W 127°18'7 7.1 150 / 121023.6 8.9 7.8 9.8
2018-Apr-20 08:00N 49°42' W 127°24'10 9.8 150 / 111023.8 8.7 7.7 9.8
2018-Apr-20 07:00N 49°48' W 127°36'7 7.1 150 / 131023.8 8.8 6.1 9.8
2018-Apr-20 06:00N 49°54' W 127°42'8 7.7 170 / 111023.9 9.0 6.7 9.7
2018-Apr-20 05:00N 49°54' W 127°54'1414.3 180 / 131023.7 9.0 6.5 9.6
2018-Apr-20 04:00N 50°06' W 128°06'1212.0 200 / 151022.9 8.9 6.3 9.6
2018-Apr-20 03:00N 50°18' W 128°06'7 7.1 190 / 121023.0 8.4 6.9 9.6
2018-Apr-20 02:00N 50°24' W 128°00'7 7.1 210 / 171023.2 7.9 7.2 9.5
2018-Apr-20 01:00N 50°30' W 127°54'8 7.6 250 / 31023.5 8.4 6.6 9.8
2018-Apr-20 00:00N 50°30' W 127°42'4 3.8 150 / 11023.7 8.6 6.2
2018-Apr-19 23:00N 50°30' W 127°36'0 0.0 140 / 161023.4 9.0 5.0 9.8
2018-Apr-19 22:00N 50°30' W 127°36'4 3.8 130 / 221023.0 9.1 5.0 9.8
2018-Apr-19 21:00N 50°30' W 127°42'0 0.0 200 / 71023.3 10.1 5.1 9.7
2018-Apr-19 20:00N 50°30' W 127°42'0 0.0 200 / 81023.7 9.4 5.1
2018-Apr-19 19:00N 50°30' W 127°42'0 0.0 190 / 101023.5 10.5 3.7
2018-Apr-19 18:00N 50°30' W 127°42'0 0.0 310 / 21024.0 8.7 4.9
2018-Apr-19 17:00N 50°30' W 127°42'0 0.0 260 / 11024.2 7.1 5.4
2018-Apr-19 16:00N 50°30' W 127°42'0 0.0 1024.3 6.5 5.2
2018-Apr-19 15:00N 50°30' W 127°42'0 0.0 1023.9 5.6 4.7
2018-Apr-19 14:00N 50°30' W 127°42'0 0.0 1023.6 4.9 4.0
2018-Apr-19 13:00N 50°30' W 127°42'0 0.0 1023.6 5.3 4.3
2018-Apr-19 12:00N 50°30' W 127°42'0 0.0 290 / 11023.5 5.1 4.2
2018-Apr-19 11:00N 50°30' W 127°42'0 0.0 1023.4 5.7 4.7
2018-Apr-19 10:00N 50°30' W 127°42'0 0.0 1023.4 5.3 4.3
2018-Apr-19 09:00N 50°30' W 127°42'0 0.0 330 / 11023.5 5.4 4.3
2018-Apr-19 08:00N 50°30' W 127°42'0 0.0 1024.0 5.5 4.3
2018-Apr-19 07:00N 50°30' W 127°42'0 0.0 1024.0 5.6 4.1
2018-Apr-19 06:00N 50°30' W 127°42'0 0.0 310 / 21024.2 6.4 4.5 9.8
2018-Apr-19 05:00N 50°30' W 127°42'0 0.0 260 / 21024.3 7.7 4.3 9.9
2018-Apr-19 04:00N 50°30' W 127°42'4 3.8 290 / 61024.0 8.6 4.4 9.9
2018-Apr-19 03:00N 50°30' W 127°48'4 3.8 280 / 91024.0 9.0 6.1 9.9
2018-Apr-19 02:00N 50°30' W 127°54'0 0.0 220 / 81023.9 9.6 6.3
2018-Apr-19 01:00N 50°30' W 127°54'4 3.8 210 / 111024.0 9.4 6.210.0
2018-Apr-19 00:00N 50°30' W 128°00'4 3.8 220 / 101024.0 9.7 5.710.0
2018-Apr-18 23:00N 50°30' W 127°54'6 6.0 220 / 121024.2 9.5 5.510.0
2018-Apr-18 22:00N 50°24' W 127°54'0 0.0 220 / 191024.4 9.3 5.1 9.9
2018-Apr-18 21:00N 50°24' W 127°54'6 6.0 230 / 161024.5 9.5 4.8 9.8
2018-Apr-18 20:00N 50°30' W 127°54'4 3.8 290 / 71024.6 9.7 3.210.1
2018-Apr-18 19:00N 50°30' W 127°48'0 0.0 110 / 41024.8 9.9 3.6
2018-Apr-18 18:00N 50°30' W 127°48'0 0.0 060 / 51024.7 8.1 4.2
2018-Apr-18 17:00N 50°30' W 127°48'0 0.0 1024.5 8.0 5.2 9.6
2018-Apr-18 16:00N 50°30' W 127°48'0 0.0 280 / 11024.4 6.9 5.1 9.6
2018-Apr-18 15:00N 50°30' W 127°48'4 3.8 230 / 11024.2 6.1 5.1 9.5
2018-Apr-18 14:00N 50°30' W 127°54'10 9.7 040 / 61023.8 5.0 3.6 9.4
2018-Apr-18 13:00N 50°24' W 128°06'8 7.6 080 / 151023.2 6.6 4.6 9.3
2018-Apr-18 12:00N 50°24' W 128°18'7 7.1 130 / 161022.8 7.8 4.2 9.4
2018-Apr-18 11:00N 50°30' W 128°24'0 0.0 140 / 161022.4 7.6 4.6 9.3
2018-Apr-18 10:00N 50°30' W 128°24'6 6.0 150 / 181022.3 7.7 4.4 9.3
2018-Apr-18 09:00N 50°36' W 128°24'7 7.1 150 / 221021.9 7.9 4.7 9.4
2018-Apr-18 08:00N 50°42' W 128°30'0 0.0 160 / 211021.8 8.0 4.6 9.3
2018-Apr-18 07:00N 50°42' W 128°30'6 6.0 150 / 201021.6 7.6 4.5 9.3
2018-Apr-18 06:00N 50°48' W 128°30'7 7.3 170 / 191021.7 7.4 4.7 9.3
2018-Apr-18 05:03N 50°55' W 128°29'0 3.1
2018-Apr-18 05:00N 50°55' W 128°29'1169.3
2018-Apr-18 05:00N 50°54' W 128°30'3 5.3 170 / 171021.5 7.5 4.5 9.2
2018-Apr-18 04:30N 50°57' W 128°29'1 2.7
2018-Apr-18 04:00N 50°58' W 128°28'4532.9
2018-Apr-18 04:00N 50°54' W 128°30'4 8.2 150 / 111021.4 7.3 4.5 9.2
2018-Apr-18 03:29N 50°57' W 128°25'3 5.9
2018-Apr-18 03:00N 50°54' W 128°24'8 7.6 140 / 61021.3 7.3 4.6 9.2
2018-Apr-18 02:00N 50°54' W 128°12'0 0.0 190 / 101021.3 7.3 4.2 9.3
2018-Apr-18 01:00N 50°54' W 128°12'4 3.8 220 / 111021.0 6.9 4.8 9.3
2018-Apr-18 00:00N 50°54' W 128°06'1 5.3 230 / 91020.7 7.5 4.9 9.5
2018-Apr-17 23:45N 50°54' W 128°04'1 2.8
2018-Apr-17 23:30N 50°54' W 128°03'2 3.7
2018-Apr-17 23:00N 50°54' W 128°00'211.0 210 / 151020.4 7.7 4.8 9.4
2018-Apr-17 22:50N 50°54' W 128°03'0 0.1
2018-Apr-17 22:24N 50°54' W 128°03'2 4.1
2018-Apr-17 22:00N 50°54' W 128°00'1 5.3 170 / 91019.9 8.0 3.6 9.3
2018-Apr-17 21:50N 50°54' W 128°01'5 9.3
2018-Apr-17 21:21N 50°53' W 127°54'411.7
2018-Apr-17 21:00N 50°52' W 127°48'2155.0
2018-Apr-17 21:00N 50°54' W 127°48'715.2 220 / 101018.9 9.3 2.6 9.2
2018-Apr-17 20:30N 50°49' W 127°39'612.2
2018-Apr-17 20:00N 50°47' W 127°30'1234.0
2018-Apr-17 20:00N 50°48' W 127°30'5 9.8 190 / 121019.5 8.6 2.8 9.2
2018-Apr-17 19:30N 50°43' W 127°28'2 4.0
2018-Apr-17 19:00N 50°42' W 127°30'231.3 270 / 31019.2 8.7 4.0
2018-Apr-17 18:56N 50°43' W 127°28'0 0.0
2018-Apr-17 18:26N 50°43' W 127°28'2 4.6
2018-Apr-17 18:00N 50°42' W 127°30'231.4 280 / 41018.6 8.4 2.6
2018-Apr-17 17:56N 50°43' W 127°28'0 0.0
2018-Apr-17 17:26N 50°43' W 127°28'2 4.7
2018-Apr-17 17:00N 50°42' W 127°30'231.4 190 / 11017.9 7.6 3.1
2018-Apr-17 16:56N 50°43' W 127°28'0 0.0
2018-Apr-17 16:26N 50°43' W 127°28'2 4.7
2018-Apr-17 16:00N 50°42' W 127°30'231.3 260 / 21017.2 7.3 2.7 9.2
2018-Apr-17 15:56N 50°43' W 127°28'0 0.0
2018-Apr-17 15:26N 50°43' W 127°28'2 4.7
2018-Apr-17 15:00N 50°42' W 127°30'231.6 230 / 21016.5 5.7 2.1 9.2
2018-Apr-17 14:56N 50°43' W 127°28'0 0.0
2018-Apr-17 14:26N 50°43' W 127°28'2 4.7
2018-Apr-17 14:00N 50°42' W 127°30'266.8 190 / 21015.9 4.7 2.4 9.3
2018-Apr-17 13:58N 50°43' W 127°28'2 2.1
2018-Apr-17 13:00N 50°42' W 127°30'0 0.0 280 / 41015.0 5.8 2.3
2018-Apr-17 12:00N 50°42' W 127°30'0 0.0 180 / 41014.4 6.2 2.0
2018-Apr-17 11:00N 50°42' W 127°30'2 3.2 210 / 51013.7 6.6 2.4
2018-Apr-17 10:27N 50°44' W 127°29'2 3.7
2018-Apr-17 10:00N 50°42' W 127°30'0 0.0 250 / 31013.1 7.0 2.7
2018-Apr-17 09:00N 50°42' W 127°30'0 0.0 230 / 61012.7 7.2 2.7
2018-Apr-17 08:00N 50°42' W 127°30'0 0.0 260 / 81012.3 7.5 2.8
2018-Apr-17 07:00N 50°42' W 127°30'0 0.0 260 / 91011.6 7.6 2.9
2018-Apr-17 06:00N 50°42' W 127°30'0 0.0 260 / 71011.2 7.8 2.9
2018-Apr-17 05:00N 50°42' W 127°30'0 0.0 240 / 51010.5 7.9 3.1
2018-Apr-17 04:00N 50°42' W 127°30'2 1.8 260 / 81009.5 8.2 3.1
2018-Apr-17 03:03N 50°44' W 127°29'226.7
2018-Apr-17 03:00N 50°42' W 127°30'0 0.0 290 / 101008.5 8.9 3.2
2018-Apr-17 02:00N 50°42' W 127°30'0 0.0 290 / 121008.1 10.0 3.1
2018-Apr-17 01:00N 50°42' W 127°30'0 0.0 290 / 161006.5 11.2 2.3 9.8
2018-Apr-17 00:00N 50°42' W 127°30'0 0.0 290 / 191005.5 11.9 1.1 9.7
2018-Apr-16 23:00N 50°42' W 127°30'2 4.6 310 / 211004.9 12.0 0.8 9.5
2018-Apr-16 22:38N 50°43' W 127°29'0 1.4
2018-Apr-16 22:30N 50°44' W 127°29'4 7.9
2018-Apr-16 22:00N 50°47' W 127°26'2104.4
2018-Apr-16 22:00N 50°48' W 127°24'4 8.7 300 / 251004.3 10.0 4.1 8.7
2018-Apr-16 21:30N 50°52' W 127°24'5 9.9
2018-Apr-16 21:00N 50°57' W 127°28'3596.7
2018-Apr-16 21:00N 50°54' W 127°30'3 6.4 300 / 261003.5 10.7 5.8 8.7
2018-Apr-16 20:27N 50°57' W 127°30'3 7.5
2018-Apr-16 20:00N 50°54' W 127°30'3193.4 300 / 261003.0 9.2 5.4 8.7
2018-Apr-16 19:58N 50°57' W 127°30'0 0.3
2018-Apr-16 19:30N 50°57' W 127°30'0 0.3
2018-Apr-16 19:00N 50°57' W 127°30'3215.7
2018-Apr-16 19:00N 50°54' W 127°30'3 7.1 290 / 201003.3 9.1 5.0 8.7
2018-Apr-16 18:30N 50°57' W 127°30'0 0.0
2018-Apr-16 18:00N 50°57' W 127°30'3218.7
2018-Apr-16 18:00N 50°54' W 127°30'3 7.1 1003.4 9.0 4.6 8.6
2018-Apr-16 17:30N 50°57' W 127°30'1 1.3
2018-Apr-16 17:00N 50°57' W 127°29'3200.3
2018-Apr-16 17:00N 50°54' W 127°30'511.2 240 / 11003.0 6.8 4.8 8.6
2018-Apr-16 16:30N 50°59' W 127°33'3 6.3
2018-Apr-16 16:00N 51°01' W 127°37'186.6
2018-Apr-16 16:00N 51°00' W 127°36'2 3.9 080 / 11003.1 7.2 4.2 8.6
2018-Apr-16 15:30N 51°02' W 127°38'2 3.8
2018-Apr-16 15:00N 51°00' W 127°36'228.2 040 / 21003.0 6.7 4.0 8.5
2018-Apr-16 14:55N 51°02' W 127°38'0 0.3
2018-Apr-16 14:30N 51°02' W 127°38'3 6.8
2018-Apr-16 14:00N 50°59' W 127°34'6348.4
2018-Apr-16 14:00N 50°54' W 127°36'714.0 080 / 31002.6 5.2 4.0 8.5
2018-Apr-16 13:30N 50°55' W 127°25'2 3.0
2018-Apr-16 13:00N 50°54' W 127°24'297.3 360 / 31002.6 3.8 3.0
2018-Apr-16 12:58N 50°55' W 127°21'0 0.0
2018-Apr-16 12:28N 50°55' W 127°21'2 4.1
2018-Apr-16 12:00N 50°54' W 127°24'293.1 020 / 31002.3 4.0 3.0
2018-Apr-16 11:58N 50°55' W 127°21'0 0.1
2018-Apr-16 11:28N 50°55' W 127°21'2 4.1
2018-Apr-16 11:00N 50°54' W 127°24'296.0 020 / 21002.7 4.2 3.1
2018-Apr-16 10:58N 50°55' W 127°21'0 0.1
2018-Apr-16 10:28N 50°55' W 127°21'2 4.1
2018-Apr-16 10:00N 50°54' W 127°24'296.1 010 / 31003.0 4.9 3.9
2018-Apr-16 09:58N 50°55' W 127°21'0 0.0
2018-Apr-16 09:28N 50°55' W 127°21'2 4.1
2018-Apr-16 09:00N 50°54' W 127°24'297.7 010 / 11003.7 5.3 4.1
2018-Apr-16 08:58N 50°55' W 127°21'0 0.0
2018-Apr-16 08:28N 50°55' W 127°21'2 4.1
2018-Apr-16 08:00N 50°54' W 127°24'216.3 350 / 31004.1 5.4 4.5
2018-Apr-16 07:52N 50°55' W 127°21'0 0.0
2018-Apr-16 07:28N 50°55' W 127°21'2 4.1
2018-Apr-16 07:00N 50°54' W 127°24'296.8 010 / 21005.0 5.7 4.3
2018-Apr-16 06:58N 50°55' W 127°21'0 0.0
2018-Apr-16 06:28N 50°55' W 127°21'2 4.1
2018-Apr-16 06:00N 50°54' W 127°24'296.8 330 / 21006.0 6.4 4.6 8.6
2018-Apr-16 05:58N 50°55' W 127°21'0 0.0
2018-Apr-16 05:28N 50°55' W 127°21'2 4.1
2018-Apr-16 05:00N 50°54' W 127°24'2100.9 340 / 41007.1 7.6 5.1 8.7
2018-Apr-16 04:58N 50°55' W 127°21'0 0.0
2018-Apr-16 04:28N 50°55' W 127°21'2 4.1
2018-Apr-16 04:00N 50°54' W 127°24'299.0 310 / 71007.5 7.9 5.1 8.8
2018-Apr-16 03:58N 50°55' W 127°21'0 0.2
2018-Apr-16 03:30N 50°55' W 127°21'3 6.3
2018-Apr-16 03:00N 50°52' W 127°19'2614.2
2018-Apr-16 03:00N 50°54' W 127°18'714.7 300 / 231007.2 8.5 5.9 8.7
2018-Apr-16 02:30N 50°49' W 127°10'612.5
2018-Apr-16 02:00N 50°48' W 127°00'3214.1 300 / 241008.0 8.7 4.5 8.7
2018-Apr-16 01:59N 50°45' W 127°01'612.7
2018-Apr-16 01:30N 50°42' W 126°53'713.1
2018-Apr-16 01:00N 50°36' W 126°48'231.5 310 / 131009.3 8.6 4.8 8.7
2018-Apr-16 00:56N 50°37' W 126°46'611.9
2018-Apr-16 00:27N 50°32' W 126°40'715.1
2018-Apr-16 00:00N 50°30' W 126°30'125.7 270 / 181009.1 8.5 3.9 8.9
2018-Apr-15 23:58N 50°30' W 126°31'1212.3
2018-Apr-15 23:00N 50°30' W 126°12'1312.9 290 / 201009.4 8.5 5.3 8.8
2018-Apr-15 22:00N 50°24' W 125°54'7 8.0 280 / 91010.3 9.3 2.0 8.7
2018-Apr-15 21:08N 50°22' W 125°43'214.9
2018-Apr-15 21:00N 50°24' W 125°42'220.9 260 / 101010.7 8.6 3.6 9.1
2018-Apr-15 20:53N 50°22' W 125°39'410.6
2018-Apr-15 20:30N 50°22' W 125°33'5 9.8
2018-Apr-15 20:00N 50°21' W 125°25'3412.3
2018-Apr-15 20:00N 50°18' W 125°24'3 6.3 310 / 81011.7 8.6 3.0 9.2
2018-Apr-15 19:30N 50°15' W 125°23'612.2
2018-Apr-15 19:00N 50°09' W 125°21'3237.9
2018-Apr-15 19:00N 50°06' W 125°24'611.5 360 / 81012.7 7.9 4.0 9.3
2018-Apr-15 18:30N 50°04' W 125°16'612.5
2018-Apr-15 18:00N 49°59' W 125°11'5344.1
2018-Apr-15 18:00N 49°54' W 125°12'4 9.2 330 / 81012.7 7.4 3.7 9.3
2018-Apr-15 17:30N 49°55' W 125°05'5 9.9
2018-Apr-15 17:00N 49°51' W 124°60'4494.0
2018-Apr-15 17:00N 49°54' W 124°54'511.0 320 / 81013.2 6.4 3.9 9.2
2018-Apr-15 16:30N 49°49' W 124°53'3 6.9
2018-Apr-15 16:00N 49°48' W 124°48'3157.5 310 / 111013.3 5.8 4.9 9.2
2018-Apr-15 15:58N 49°45' W 124°48'4 9.6
2018-Apr-15 15:30N 49°41' W 124°44'5 9.9
2018-Apr-15 15:00N 49°37' W 124°39'2267.1
2018-Apr-15 15:00N 49°36' W 124°42'611.2 300 / 131013.2 6.3 4.1 9.1
2018-Apr-15 14:30N 49°34' W 124°34'5 9.2
2018-Apr-15 14:00N 49°30' W 124°30'1323.5 310 / 101013.3 6.9 5.0 9.2
2018-Apr-15 13:59N 49°30' W 124°29'710.6
2018-Apr-15 13:19N 49°26' W 124°20'310.5
2018-Apr-15 13:01N 49°25' W 124°15'2135.7
2018-Apr-15 13:00N 49°24' W 124°12'1211.7 260 / 91013.5 6.2 3.9 9.3
2018-Apr-15 12:00N 49°24' W 123°54'5 8.9 280 / 31013.7 7.7 5.1 9.4
2018-Apr-15 11:23N 49°19' W 123°51'410.6
2018-Apr-15 11:01N 49°18' W 123°45'2109.3
2018-Apr-15 11:00N 49°18' W 123°42'5 8.6 050 / 71014.0 6.9 5.2 9.4
2018-Apr-15 10:27N 49°15' W 123°37'510.7
2018-Apr-15 10:01N 49°11' W 123°32'2114.0
2018-Apr-15 10:00N 49°12' W 123°30'511.2 020 / 71013.9 7.6 6.3 8.9
2018-Apr-15 09:30N 49°07' W 123°27'510.8
2018-Apr-15 09:01N 49°03' W 123°21'3186.6
2018-Apr-15 09:00N 49°06' W 123°18'713.3 160 / 111014.2 7.6 6.0 9.3
2018-Apr-15 08:30N 48°60' W 123°14'510.7
2018-Apr-15 08:00N 48°56' W 123°08'3492.3
2018-Apr-15 08:00N 48°54' W 123°06'3 5.5 180 / 61014.5 7.7 6.0 9.2
2018-Apr-15 07:30N 48°53' W 123°02'510.0
2018-Apr-15 07:01N 48°48' W 122°60'4223.2
2018-Apr-15 07:00N 48°48' W 122°54'816.1 190 / 41014.9 7.9 6.0 8.9
2018-Apr-15 06:30N 48°45' W 123°05'4 8.1
2018-Apr-15 06:00N 48°43' W 123°10'292.5
2018-Apr-15 06:00N 48°42' W 123°12'3 5.4 160 / 81015.0 7.9 6.1 8.9
2018-Apr-15 05:31N 48°41' W 123°15'4 7.9
2018-Apr-15 05:01N 48°37' W 123°14'186.4
2018-Apr-15 05:00N 48°36' W 123°12'3 6.9 140 / 71015.5 7.9 5.7 9.0
2018-Apr-15 04:30N 48°33' W 123°12'5 9.6
2018-Apr-15 04:00N 48°28' W 123°10'2138.9
2018-Apr-15 04:00N 48°30' W 123°12'612.1 130 / 121015.8 8.1 6.2 9.0
2018-Apr-15 03:30N 48°24' W 123°12'4 7.7
2018-Apr-15 03:00N 48°22' W 123°17'2131.4
2018-Apr-15 03:00N 48°24' W 123°18'3 6.7 160 / 91016.2 8.2 6.5 9.1
2018-Apr-15 02:31N 48°23' W 123°23'1 2.5
2018-Apr-15 02:00N 48°24' W 123°24'0 0.0 150 / 61017.0 8.6 7.8
2018-Apr-15 01:00N 48°24' W 123°24'0 0.0 150 / 31017.5 9.2 7.5
2018-Apr-15 00:00N 48°24' W 123°24'0 0.0 150 / 41018.0 9.7 7.1
2018-Apr-14 23:00N 48°24' W 123°24'0 0.0 150 / 51019.2 10.2 7.1
2018-Apr-14 22:00N 48°24' W 123°24'0 0.0 100 / 31019.4 10.3 6.2
2018-Apr-14 21:00N 48°24' W 123°24'0 0.0 140 / 41020.2 9.9 6.4
2018-Apr-14 20:00N 48°24' W 123°24'0 0.0 110 / 41021.1 10.5 5.9
2018-Apr-14 19:00N 48°24' W 123°24'0 0.0 130 / 41022.0 9.5 5.8
2018-Apr-14 18:00N 48°24' W 123°24'0 0.0 160 / 51022.8 9.1 6.6
2018-Apr-14 17:00N 48°24' W 123°24'0 0.0 130 / 41023.0 9.1 6.5 9.3
2018-Apr-14 16:00N 48°24' W 123°24'0 0.0 120 / 41023.3 8.9 6.9 9.4
2018-Apr-14 15:00N 48°24' W 123°24'1 2.3 230 / 21023.5 8.3 5.8 9.3
2018-Apr-14 14:28N 48°25' W 123°24'1 2.5
2018-Apr-14 14:00N 48°24' W 123°24'131.3 270 / 21023.2 7.9 5.2 9.0
2018-Apr-14 13:57N 48°23' W 123°26'2 5.3
2018-Apr-14 13:30N 48°22' W 123°28'0 0.9
2018-Apr-14 13:00N 48°22' W 123°28'2166.1
2018-Apr-14 13:00N 48°24' W 123°30'3 4.9 280 / 41023.3 8.4 5.0 9.0
2018-Apr-14 12:28N 48°22' W 123°27'3 5.3
2018-Apr-14 12:00N 48°24' W 123°30'338.7 120 / 11023.2 8.5 6.2 9.0
2018-Apr-14 11:54N 48°21' W 123°28'1 1.9
2018-Apr-14 11:30N 48°20' W 123°28'1 1.9
2018-Apr-14 11:00N 48°20' W 123°29'2110.6
2018-Apr-14 11:00N 48°18' W 123°30'3 5.7 320 / 141022.8 8.6 5.3 9.0
2018-Apr-14 10:27N 48°21' W 123°28'2 3.7
2018-Apr-14 10:00N 48°22' W 123°27'3372.9
2018-Apr-14 10:00N 48°24' W 123°24'1 2.4 270 / 111022.9 9.4 4.6 9.1
2018-Apr-14 09:30N 48°23' W 123°25'2 3.3
2018-Apr-14 09:00N 48°23' W 123°23'174.2
2018-Apr-14 09:00N 48°24' W 123°24'4 7.9 280 / 201022.5 9.6 4.6 9.1
2018-Apr-14 08:30N 48°23' W 123°18'3 6.1
2018-Apr-14 08:00N 48°24' W 123°14'2101.2
2018-Apr-14 08:00N 48°24' W 123°12'2 3.8 270 / 181022.5 9.6 5.7 9.0
2018-Apr-14 07:30N 48°26' W 123°12'3 5.4
2018-Apr-14 07:00N 48°29' W 123°12'299.9
2018-Apr-14 07:00N 48°30' W 123°12'2 3.7 230 / 131022.5 9.4 6.4 9.1
2018-Apr-14 06:30N 48°32' W 123°13'3 6.5
2018-Apr-14 06:00N 48°35' W 123°14'21249.8
2018-Apr-14 06:00N 48°36' W 123°12'3 6.1 190 / 161021.5 9.4 6.7 9.0
2018-Apr-14 05:30N 48°38' W 123°15'5 9.2
2018-Apr-14 05:00N 48°43' W 123°14'184.7
2018-Apr-14 05:00N 48°42' W 123°12'510.7 200 / 151020.9 9.5 7.5 8.9
2018-Apr-14 04:30N 48°45' W 123°06'5 9.1
2018-Apr-14 04:00N 48°49' W 123°01'1838.1
2018-Apr-14 04:00N 48°48' W 123°00'613.0 200 / 211018.9 10.6 7.2 9.1
2018-Apr-14 03:30N 48°52' W 123°07'4 8.8
2018-Apr-14 03:00N 48°55' W 123°12'1133.9
2018-Apr-14 03:00N 48°54' W 123°12'510.6 190 / 301017.2 10.9 7.4 9.3
2018-Apr-14 02:30N 48°58' W 123°16'4 8.2
2018-Apr-14 02:00N 49°01' W 123°21'21309.2
2018-Apr-14 02:00N 49°00' W 123°24'5 9.3 170 / 251017.0 10.2 8.0 9.3
2018-Apr-14 01:29N 49°05' W 123°23'0 0.4
2018-Apr-14 01:00N 49°04' W 123°23'2178.4
2018-Apr-14 01:00N 49°06' W 123°24'2 3.5 150 / 221018.3 9.9 8.7 9.4
2018-Apr-14 00:30N 49°04' W 123°23'2 3.3
2018-Apr-14 00:00N 49°06' W 123°24'274.1 160 / 241018.4 10.7 8.1 9.4
2018-Apr-13 23:58N 49°04' W 123°23'0 0.1
2018-Apr-13 23:30N 49°04' W 123°23'0 0.2
2018-Apr-13 23:00N 49°04' W 123°23'2112.4
2018-Apr-13 23:00N 49°06' W 123°24'2 3.3 140 / 201017.8 10.3 7.8 9.5
2018-Apr-13 22:30N 49°05' W 123°23'3 5.6
2018-Apr-13 22:00N 49°06' W 123°27'2185.9
2018-Apr-13 22:00N 49°06' W 123°24'4 7.5 140 / 291017.9 10.1 7.9 9.4
2018-Apr-13 21:29N 49°07' W 123°29'0 0.6
2018-Apr-13 21:00N 49°07' W 123°29'2126.0
2018-Apr-13 21:00N 49°06' W 123°30'2 3.6 140 / 311017.7 9.9 7.2 9.3
2018-Apr-13 20:30N 49°07' W 123°28'1 1.1
2018-Apr-13 20:01N 49°07' W 123°28'2110.1
2018-Apr-13 20:00N 49°06' W 123°30'2 4.4 130 / 161018.5 9.2 7.0 9.3
2018-Apr-13 19:30N 49°07' W 123°27'1 1.2
2018-Apr-13 19:00N 49°06' W 123°26'2230.2
2018-Apr-13 19:00N 49°06' W 123°24'1 1.9 110 / 81018.8 8.4 7.1 9.3
2018-Apr-13 18:30N 49°06' W 123°25'4 7.5
2018-Apr-13 18:00N 49°10' W 123°24'2136.9
2018-Apr-13 18:00N 49°12' W 123°24'4 7.8 080 / 191019.0 7.0 6.2 9.5
2018-Apr-13 17:30N 49°15' W 123°22'2 3.8
2018-Apr-13 17:00N 49°17' W 123°19'2128.2
2018-Apr-13 17:00N 49°18' W 123°18'2 3.4 090 / 151019.2 6.8 5.5 9.7
2018-Apr-13 16:30N 49°17' W 123°19'2 3.3
2018-Apr-13 16:00N 49°18' W 123°18'2988.2 080 / 171019.2 6.6 5.4 9.6
2018-Apr-13 15:59N 49°17' W 123°19'0 0.1
2018-Apr-13 15:30N 49°17' W 123°19'0 0.2
2018-Apr-13 15:00N 49°17' W 123°19'21162.9
2018-Apr-13 15:00N 49°18' W 123°18'2 3.2 090 / 191019.4 7.3 5.1 9.6
2018-Apr-13 14:30N 49°17' W 123°19'2 4.1
2018-Apr-13 14:00N 49°16' W 123°22'2517.7
2018-Apr-13 14:00N 49°18' W 123°24'1 3.1 120 / 221019.0 7.7 5.1 9.9
2018-Apr-13 13:30N 49°17' W 123°24'1 2.3
2018-Apr-13 13:00N 49°17' W 123°26'2143.2
2018-Apr-13 13:00N 49°18' W 123°24'3 5.5 130 / 201018.8 7.5 6.0 9.8
2018-Apr-13 12:30N 49°17' W 123°28'1 1.8
2018-Apr-13 12:00N 49°17' W 123°29'1293.2
2018-Apr-13 12:00N 49°18' W 123°30'2 3.1 120 / 271018.1 7.6 5.3 9.5
2018-Apr-13 11:30N 49°17' W 123°32'2 4.5
2018-Apr-13 11:00N 49°18' W 123°35'028.6
2018-Apr-13 11:00N 49°18' W 123°36'2 3.8 140 / 271018.2 8.0 5.5 9.6
2018-Apr-13 10:30N 49°19' W 123°39'2 4.2
2018-Apr-13 10:00N 49°17' W 123°37'1293.3
2018-Apr-13 10:00N 49°18' W 123°36'3 6.7 120 / 271018.3 8.5 6.3 9.4
2018-Apr-13 09:29N 49°15' W 123°34'4 7.9
2018-Apr-13 09:00N 49°12' W 123°30'2180.9 120 / 161019.0 8.7 5.0 9.4
2018-Apr-13 08:59N 49°13' W 123°32'2 4.2
2018-Apr-13 08:30N 49°11' W 123°31'2 4.1
2018-Apr-13 08:00N 49°10' W 123°29'2358.0
2018-Apr-13 08:00N 49°12' W 123°30'4 8.9 130 / 171019.6 9.5 3.8 9.4
2018-Apr-13 07:30N 49°08' W 123°27'3 5.7
2018-Apr-13 07:00N 49°06' W 123°24'1208.1 160 / 111019.4 9.1 2.4 9.2
2018-Apr-13 06:59N 49°07' W 123°25'510.6
2018-Apr-13 06:30N 49°03' W 123°19'510.7
2018-Apr-13 06:00N 48°60' W 123°13'6856.0
2018-Apr-13 06:00N 48°54' W 123°12'4 7.5 190 / 91019.2 9.3 2.1 9.4
2018-Apr-13 05:28N 48°56' W 123°07'5 9.7
2018-Apr-13 05:00N 48°53' W 123°02'2152.1
2018-Apr-13 05:00N 48°54' W 123°00'611.7 200 / 111019.4 9.4 2.0 9.3
2018-Apr-13 04:26N 48°48' W 122°60'4 8.6
2018-Apr-13 04:00N 48°45' W 123°04'3220.0
2018-Apr-13 04:00N 48°42' W 123°06'2 4.4 230 / 111018.4 10.0 3.0 9.1
2018-Apr-13 03:30N 48°43' W 123°09'5 9.1
2018-Apr-13 03:00N 48°41' W 123°15'2126.5
2018-Apr-13 03:00N 48°42' W 123°12'5 9.9 230 / 111017.8 9.9 1.6 9.0
2018-Apr-13 02:30N 48°37' W 123°13'4 8.4
2018-Apr-13 02:00N 48°33' W 123°12'3229.5
2018-Apr-13 02:00N 48°36' W 123°12'715.4 220 / 101017.5 10.7 2.0 9.2
2018-Apr-13 01:30N 48°29' W 123°10'5 9.1
2018-Apr-13 01:00N 48°24' W 123°11'029.5
2018-Apr-13 01:00N 48°24' W 123°12'4 8.5 240 / 161017.5 10.4 5.1 9.1
2018-Apr-13 00:30N 48°22' W 123°17'5 9.3
2018-Apr-13 00:00N 48°24' W 123°24'0 0.2 230 / 141016.2 9.8 4.0 9.2
2018-Apr-12 23:06N 48°24' W 123°24'111.0
2018-Apr-12 23:00N 48°23' W 123°23'1921.5
2018-Apr-12 23:00N 48°24' W 123°24'815.5 240 / 111015.7 8.6 3.9 9.4
2018-Apr-12 22:30N 48°18' W 123°18'4 7.5
2018-Apr-12 22:00N 48°18' W 123°24'314.6 250 / 111014.8 8.3 4.0 9.4
2018-Apr-12 21:47N 48°19' W 123°20'413.3
2018-Apr-12 21:31N 48°22' W 123°16'4 8.3
2018-Apr-12 21:00N 48°18' W 123°12'2118.6 230 / 21014.2 7.8 3.9 9.3
2018-Apr-12 20:58N 48°20' W 123°13'1211.8
2018-Apr-12 20:00N 48°18' W 123°30'1212.0 160 / 61013.5 7.9 3.6 9.4
2018-Apr-12 19:00N 48°18' W 123°48'8 8.0 280 / 61012.6 8.0 3.4 9.6
2018-Apr-12 18:00N 48°18' W 123°36'8 8.0 090 / 61011.9 7.5 4.0 9.0
2018-Apr-12 17:00N 48°18' W 123°24'7 2.3 130 / 51011.0 6.9 3.6 9.0
2018-Apr-12 13:55N 48°25' W 123°23'0 0.0
2018-Apr-12 13:28N 48°25' W 123°23'0 0.0
2018-Apr-12 12:58N 48°25' W 123°23'0 0.0
2018-Apr-12 12:28N 48°25' W 123°23'1 2.8
2018-Apr-12 12:00N 48°24' W 123°24'140.2 260 / 101008.0 7.5 3.6
2018-Apr-12 11:58N 48°25' W 123°23'0 0.0
2018-Apr-12 11:28N 48°25' W 123°23'0 0.0
2018-Apr-12 10:58N 48°25' W 123°23'0 0.0
2018-Apr-12 10:28N 48°25' W 123°23'0 0.0
2018-Apr-12 09:58N 48°25' W 123°23'0 0.0
2018-Apr-12 09:28N 48°25' W 123°23'0 0.0
2018-Apr-12 08:58N 48°25' W 123°23'0 0.0
2018-Apr-12 08:28N 48°25' W 123°23'0 0.0
2018-Apr-12 07:52N 48°25' W 123°23'0 0.0
2018-Apr-12 07:28N 48°25' W 123°23'0 0.0
2018-Apr-12 06:58N 48°25' W 123°23'0 0.0
2018-Apr-12 06:28N 48°25' W 123°23'1 2.8
2018-Apr-12 06:00N 48°24' W 123°24'1 5.6 260 / 101004.4 7.4 4.5
2018-Apr-12 05:46N 48°25' W 123°23'1 0.2
2018-Apr-12 00:00N 48°24' W 123°24'0 0.0 130 / 121002.0 9.5 5.1
2018-Apr-11 18:00N 48°24' W 123°24'1 0.4 130 / 61004.7 10.0 5.6
2018-Apr-11 14:16N 48°25' W 123°23'0 0.0
2018-Apr-11 13:58N 48°25' W 123°23'0 0.0
2018-Apr-11 13:26N 48°25' W 123°23'0 0.0
2018-Apr-11 12:58N 48°25' W 123°23'0 0.0
2018-Apr-11 12:28N 48°25' W 123°23'1 2.7
2018-Apr-11 12:00N 48°24' W 123°24'174.6 010 / 31009.4 9.5 6.4
2018-Apr-11 11:58N 48°25' W 123°23'0 0.0
2018-Apr-11 11:28N 48°25' W 123°23'0 0.0
2018-Apr-11 10:58N 48°25' W 123°23'0 0.0
2018-Apr-11 10:28N 48°25' W 123°23'0 0.0
2018-Apr-11 09:58N 48°25' W 123°23'0 0.0
2018-Apr-11 09:16N 48°25' W 123°23'0 0.0
2018-Apr-11 08:58N 48°25' W 123°23'0 0.0
2018-Apr-11 08:28N 48°25' W 123°23'0 0.0
2018-Apr-11 07:58N 48°25' W 123°23'0 0.0
2018-Apr-11 07:28N 48°25' W 123°23'0 0.0
2018-Apr-11 06:58N 48°25' W 123°23'0 0.0
2018-Apr-11 06:25N 48°25' W 123°23'1 3.0
2018-Apr-11 06:00N 48°24' W 123°24'175.8 270 / 61011.8 10.9 3.8
2018-Apr-11 05:58N 48°25' W 123°23'1 0.2
2018-Apr-11 00:00N 48°24' W 123°24'   260 / 151011.8 13.4 2.4
Track history (hours):
 
Tides and Currents Weather Stations Pressure Air Temp Water Temp Dewpoint Dewpoint Depression Visibility Wind Speed Wind Dir Waves Ship Positions

Oceanographic research ship CCGS Sir Wilfrid Laurier (Canada)

Detailed information on ship capabilities available from ARCUS's ALIAS (Arctic Logistics Information and Support) project.

Last reported at 2018-Apr-20 23:00 UTC. Time now 2018-Apr-21 00:21 UTC.
Position N 49°36' W 126°30'.

Length 83 m; beam 16.2 m; draft 6 m.

Type: SAR. MMSI: 316052000.

Wind from 070 at 4 knots

Barometer 1019.3 mb
Air temperature 8.1 ° C
Dewpoint 6.6 ° C

Date/timePositionNaut miles runAvg speedWind from/ knotsBaromVisibWave heightAir tempDewpointWater temp
2018-Apr-20 23:00N 49°36' W 126°30'0 0.0 070 / 41019.3 8.1 6.6
2018-Apr-20 22:00N 49°36' W 126°30'4 3.9 070 / 31020.3 8.1 6.8
2018-Apr-20 21:00N 49°36' W 126°24'4 3.9 210 / 11020.8 8.3 7.4
2018-Apr-20 20:00N 49°36' W 126°30'4 3.9 030 / 41021.0 7.9 6.810.1
2018-Apr-20 19:00N 49°36' W 126°24'0 0.0 080 / 21021.5 7.8 6.410.0
2018-Apr-20 18:00N 49°36' W 126°24'4 3.9 120 / 41021.8 7.7 6.4 9.8
2018-Apr-20 17:00N 49°36' W 126°30'10 9.8 020 / 21021.8 7.8 6.810.2
2018-Apr-20 16:00N 49°30' W 126°42'1212.0 140 / 191022.2 8.5 7.810.1
2018-Apr-20 15:00N 49°18' W 126°42'8 7.8 160 / 121022.4 8.9 8.210.3
2018-Apr-20 14:00N 49°18' W 126°30'10 9.9 170 / 91022.4 8.7 7.910.2
2018-Apr-20 13:00N 49°24' W 126°42'8 7.8 130 / 131022.2 8.5 8.010.1
2018-Apr-20 12:00N 49°24' W 126°54'6 6.0 130 / 171022.0 8.4 7.410.0
2018-Apr-20 11:00N 49°30' W 126°54'10 9.8 120 / 201022.6 8.1 7.610.0
2018-Apr-20 10:00N 49°36' W 127°06'8 7.8 140 / 131023.4 8.8 7.9 9.9
2018-Apr-20 09:00N 49°36' W 127°18'7 7.1 150 / 121023.6 8.9 7.8 9.8
2018-Apr-20 08:00N 49°42' W 127°24'10 9.8 150 / 111023.8 8.7 7.7 9.8
2018-Apr-20 07:00N 49°48' W 127°36'7 7.1 150 / 131023.8 8.8 6.1 9.8
2018-Apr-20 06:00N 49°54' W 127°42'8 7.7 170 / 111023.9 9.0 6.7 9.7
2018-Apr-20 05:00N 49°54' W 127°54'1414.3 180 / 131023.7 9.0 6.5 9.6
2018-Apr-20 04:00N 50°06' W 128°06'1212.0 200 / 151022.9 8.9 6.3 9.6
2018-Apr-20 03:00N 50°18' W 128°06'7 7.1 190 / 121023.0 8.4 6.9 9.6
2018-Apr-20 02:00N 50°24' W 128°00'7 7.1 210 / 171023.2 7.9 7.2 9.5
2018-Apr-20 01:00N 50°30' W 127°54'8 7.6 250 / 31023.5 8.4 6.6 9.8
2018-Apr-20 00:00N 50°30' W 127°42'4 3.8 150 / 11023.7 8.6 6.2
2018-Apr-19 23:00N 50°30' W 127°36'0 0.0 140 / 161023.4 9.0 5.0 9.8
2018-Apr-19 22:00N 50°30' W 127°36'4 3.8 130 / 221023.0 9.1 5.0 9.8
2018-Apr-19 21:00N 50°30' W 127°42'0 0.0 200 / 71023.3 10.1 5.1 9.7
2018-Apr-19 20:00N 50°30' W 127°42'0 0.0 200 / 81023.7 9.4 5.1
2018-Apr-19 19:00N 50°30' W 127°42'0 0.0 190 / 101023.5 10.5 3.7
2018-Apr-19 18:00N 50°30' W 127°42'0 0.0 310 / 21024.0 8.7 4.9
2018-Apr-19 17:00N 50°30' W 127°42'0 0.0 260 / 11024.2 7.1 5.4
2018-Apr-19 16:00N 50°30' W 127°42'0 0.0 1024.3 6.5 5.2
2018-Apr-19 15:00N 50°30' W 127°42'0 0.0 1023.9 5.6 4.7
2018-Apr-19 14:00N 50°30' W 127°42'0 0.0 1023.6 4.9 4.0
2018-Apr-19 13:00N 50°30' W 127°42'0 0.0 1023.6 5.3 4.3
2018-Apr-19 12:00N 50°30' W 127°42'0 0.0 290 / 11023.5 5.1 4.2
2018-Apr-19 11:00N 50°30' W 127°42'0 0.0 1023.4 5.7 4.7
2018-Apr-19 10:00N 50°30' W 127°42'0 0.0 1023.4 5.3 4.3
2018-Apr-19 09:00N 50°30' W 127°42'0 0.0 330 / 11023.5 5.4 4.3
2018-Apr-19 08:00N 50°30' W 127°42'0 0.0 1024.0 5.5 4.3
2018-Apr-19 07:00N 50°30' W 127°42'0 0.0 1024.0 5.6 4.1
2018-Apr-19 06:00N 50°30' W 127°42'0 0.0 310 / 21024.2 6.4 4.5 9.8
2018-Apr-19 05:00N 50°30' W 127°42'0 0.0 260 / 21024.3 7.7 4.3 9.9
2018-Apr-19 04:00N 50°30' W 127°42'4 3.8 290 / 61024.0 8.6 4.4 9.9
2018-Apr-19 03:00N 50°30' W 127°48'4 3.8 280 / 91024.0 9.0 6.1 9.9
2018-Apr-19 02:00N 50°30' W 127°54'0 0.0 220 / 81023.9 9.6 6.3
2018-Apr-19 01:00N 50°30' W 127°54'4 3.8 210 / 111024.0 9.4 6.210.0
2018-Apr-19 00:00N 50°30' W 128°00'4 3.8 220 / 101024.0 9.7 5.710.0
2018-Apr-18 23:00N 50°30' W 127°54'6 6.0 220 / 121024.2 9.5 5.510.0
2018-Apr-18 22:00N 50°24' W 127°54'0 0.0 220 / 191024.4 9.3 5.1 9.9
2018-Apr-18 21:00N 50°24' W 127°54'6 6.0 230 / 161024.5 9.5 4.8 9.8
2018-Apr-18 20:00N 50°30' W 127°54'4 3.8 290 / 71024.6 9.7 3.210.1
2018-Apr-18 19:00N 50°30' W 127°48'0 0.0 110 / 41024.8 9.9 3.6
2018-Apr-18 18:00N 50°30' W 127°48'0 0.0 060 / 51024.7 8.1 4.2
2018-Apr-18 17:00N 50°30' W 127°48'0 0.0 1024.5 8.0 5.2 9.6
2018-Apr-18 16:00N 50°30' W 127°48'0 0.0 280 / 11024.4 6.9 5.1 9.6
2018-Apr-18 15:00N 50°30' W 127°48'4 3.8 230 / 11024.2 6.1 5.1 9.5
2018-Apr-18 14:00N 50°30' W 127°54'10 9.7 040 / 61023.8 5.0 3.6 9.4
2018-Apr-18 13:00N 50°24' W 128°06'8 7.6 080 / 151023.2 6.6 4.6 9.3
2018-Apr-18 12:00N 50°24' W 128°18'7 7.1 130 / 161022.8 7.8 4.2 9.4
2018-Apr-18 11:00N 50°30' W 128°24'0 0.0 140 / 161022.4 7.6 4.6 9.3
2018-Apr-18 10:00N 50°30' W 128°24'6 6.0 150 / 181022.3 7.7 4.4 9.3
2018-Apr-18 09:00N 50°36' W 128°24'7 7.1 150 / 221021.9 7.9 4.7 9.4
2018-Apr-18 08:00N 50°42' W 128°30'0 0.0 160 / 211021.8 8.0 4.6 9.3
2018-Apr-18 07:00N 50°42' W 128°30'6 6.0 150 / 201021.6 7.6 4.5 9.3
2018-Apr-18 06:00N 50°48' W 128°30'7 7.3 170 / 191021.7 7.4 4.7 9.3
2018-Apr-18 05:03N 50°55' W 128°29'0 3.1
2018-Apr-18 05:00N 50°55' W 128°29'1169.3
2018-Apr-18 05:00N 50°54' W 128°30'3 5.3 170 / 171021.5 7.5 4.5 9.2
2018-Apr-18 04:30N 50°57' W 128°29'1 2.7
2018-Apr-18 04:00N 50°58' W 128°28'4532.9
2018-Apr-18 04:00N 50°54' W 128°30'4 8.2 150 / 111021.4 7.3 4.5 9.2
2018-Apr-18 03:29N 50°57' W 128°25'3 5.9
2018-Apr-18 03:00N 50°54' W 128°24'8 7.6 140 / 61021.3 7.3 4.6 9.2
2018-Apr-18 02:00N 50°54' W 128°12'0 0.0 190 / 101021.3 7.3 4.2 9.3
2018-Apr-18 01:00N 50°54' W 128°12'4 3.8 220 / 111021.0 6.9 4.8 9.3
2018-Apr-18 00:00N 50°54' W 128°06'1 5.3 230 / 91020.7 7.5 4.9 9.5
2018-Apr-17 23:45N 50°54' W 128°04'1 2.8
2018-Apr-17 23:30N 50°54' W 128°03'2 3.7
2018-Apr-17 23:00N 50°54' W 128°00'211.0 210 / 151020.4 7.7 4.8 9.4
2018-Apr-17 22:50N 50°54' W 128°03'0 0.1
2018-Apr-17 22:24N 50°54' W 128°03'2 4.1
2018-Apr-17 22:00N 50°54' W 128°00'1 5.3 170 / 91019.9 8.0 3.6 9.3
2018-Apr-17 21:50N 50°54' W 128°01'5 9.3
2018-Apr-17 21:21N 50°53' W 127°54'411.7
2018-Apr-17 21:00N 50°52' W 127°48'2155.0
2018-Apr-17 21:00N 50°54' W 127°48'715.2 220 / 101018.9 9.3 2.6 9.2
2018-Apr-17 20:30N 50°49' W 127°39'612.2
2018-Apr-17 20:00N 50°47' W 127°30'1234.0
2018-Apr-17 20:00N 50°48' W 127°30'5 9.8 190 / 121019.5 8.6 2.8 9.2
2018-Apr-17 19:30N 50°43' W 127°28'2 4.0
2018-Apr-17 19:00N 50°42' W 127°30'231.3 270 / 31019.2 8.7 4.0
2018-Apr-17 18:56N 50°43' W 127°28'0 0.0
2018-Apr-17 18:26N 50°43' W 127°28'2 4.6
2018-Apr-17 18:00N 50°42' W 127°30'231.4 280 / 41018.6 8.4 2.6
2018-Apr-17 17:56N 50°43' W 127°28'0 0.0
2018-Apr-17 17:26N 50°43' W 127°28'2 4.7
2018-Apr-17 17:00N 50°42' W 127°30'231.4 190 / 11017.9 7.6 3.1
2018-Apr-17 16:56N 50°43' W 127°28'0 0.0
2018-Apr-17 16:26N 50°43' W 127°28'2 4.7
2018-Apr-17 16:00N 50°42' W 127°30'231.3 260 / 21017.2 7.3 2.7 9.2
2018-Apr-17 15:56N 50°43' W 127°28'0 0.0
2018-Apr-17 15:26N 50°43' W 127°28'2 4.7
2018-Apr-17 15:00N 50°42' W 127°30'231.6 230 / 21016.5 5.7 2.1 9.2
2018-Apr-17 14:56N 50°43' W 127°28'0 0.0
2018-Apr-17 14:26N 50°43' W 127°28'2 4.7
2018-Apr-17 14:00N 50°42' W 127°30'266.8 190 / 21015.9 4.7 2.4 9.3
2018-Apr-17 13:58N 50°43' W 127°28'2 2.1
2018-Apr-17 13:00N 50°42' W 127°30'0 0.0 280 / 41015.0 5.8 2.3
2018-Apr-17 12:00N 50°42' W 127°30'0 0.0 180 / 41014.4 6.2 2.0
2018-Apr-17 11:00N 50°42' W 127°30'2 3.2 210 / 51013.7 6.6 2.4
2018-Apr-17 10:27N 50°44' W 127°29'2 3.7
2018-Apr-17 10:00N 50°42' W 127°30'0 0.0 250 / 31013.1 7.0 2.7
2018-Apr-17 09:00N 50°42' W 127°30'0 0.0 230 / 61012.7 7.2 2.7
2018-Apr-17 08:00N 50°42' W 127°30'0 0.0 260 / 81012.3 7.5 2.8
2018-Apr-17 07:00N 50°42' W 127°30'0 0.0 260 / 91011.6 7.6 2.9
2018-Apr-17 06:00N 50°42' W 127°30'0 0.0 260 / 71011.2 7.8 2.9
2018-Apr-17 05:00N 50°42' W 127°30'0 0.0 240 / 51010.5 7.9 3.1
2018-Apr-17 04:00N 50°42' W 127°30'2 1.8 260 / 81009.5 8.2 3.1
2018-Apr-17 03:03N 50°44' W 127°29'226.7
2018-Apr-17 03:00N 50°42' W 127°30'0 0.0 290 / 101008.5 8.9 3.2
2018-Apr-17 02:00N 50°42' W 127°30'0 0.0 290 / 121008.1 10.0 3.1
2018-Apr-17 01:00N 50°42' W 127°30'0 0.0 290 / 161006.5 11.2 2.3 9.8
2018-Apr-17 00:00N 50°42' W 127°30'0 0.0 290 / 191005.5 11.9 1.1 9.7
2018-Apr-16 23:00N 50°42' W 127°30'2 4.6 310 / 211004.9 12.0 0.8 9.5
2018-Apr-16 22:38N 50°43' W 127°29'0 1.4
2018-Apr-16 22:30N 50°44' W 127°29'4 7.9
2018-Apr-16 22:00N 50°47' W 127°26'2104.4
2018-Apr-16 22:00N 50°48' W 127°24'4 8.7 300 / 251004.3 10.0 4.1 8.7
2018-Apr-16 21:30N 50°52' W 127°24'5 9.9
2018-Apr-16 21:00N 50°57' W 127°28'3596.7
2018-Apr-16 21:00N 50°54' W 127°30'3 6.4 300 / 261003.5 10.7 5.8 8.7
2018-Apr-16 20:27N 50°57' W 127°30'3 7.5
2018-Apr-16 20:00N 50°54' W 127°30'3193.4 300 / 261003.0 9.2 5.4 8.7
2018-Apr-16 19:58N 50°57' W 127°30'0 0.3
2018-Apr-16 19:30N 50°57' W 127°30'0 0.3
2018-Apr-16 19:00N 50°57' W 127°30'3215.7
2018-Apr-16 19:00N 50°54' W 127°30'3 7.1 290 / 201003.3 9.1 5.0 8.7
2018-Apr-16 18:30N 50°57' W 127°30'0 0.0
2018-Apr-16 18:00N 50°57' W 127°30'3218.7
2018-Apr-16 18:00N 50°54' W 127°30'3 7.1 1003.4 9.0 4.6 8.6
2018-Apr-16 17:30N 50°57' W 127°30'1 1.3
2018-Apr-16 17:00N 50°57' W 127°29'3200.3
2018-Apr-16 17:00N 50°54' W 127°30'511.2 240 / 11003.0 6.8 4.8 8.6
2018-Apr-16 16:30N 50°59' W 127°33'3 6.3
2018-Apr-16 16:00N 51°01' W 127°37'186.6
2018-Apr-16 16:00N 51°00' W 127°36'2 3.9 080 / 11003.1 7.2 4.2 8.6
2018-Apr-16 15:30N 51°02' W 127°38'2 3.8
2018-Apr-16 15:00N 51°00' W 127°36'228.2 040 / 21003.0 6.7 4.0 8.5
2018-Apr-16 14:55N 51°02' W 127°38'0 0.3
2018-Apr-16 14:30N 51°02' W 127°38'3 6.8
2018-Apr-16 14:00N 50°59' W 127°34'6348.4
2018-Apr-16 14:00N 50°54' W 127°36'714.0 080 / 31002.6 5.2 4.0 8.5
2018-Apr-16 13:30N 50°55' W 127°25'2 3.0
2018-Apr-16 13:00N 50°54' W 127°24'297.3 360 / 31002.6 3.8 3.0
2018-Apr-16 12:58N 50°55' W 127°21'0 0.0
2018-Apr-16 12:28N 50°55' W 127°21'2 4.1
2018-Apr-16 12:00N 50°54' W 127°24'293.1 020 / 31002.3 4.0 3.0
2018-Apr-16 11:58N 50°55' W 127°21'0 0.1
2018-Apr-16 11:28N 50°55' W 127°21'2 4.1
2018-Apr-16 11:00N 50°54' W 127°24'296.0 020 / 21002.7 4.2 3.1
2018-Apr-16 10:58N 50°55' W 127°21'0 0.1
2018-Apr-16 10:28N 50°55' W 127°21'2 4.1
2018-Apr-16 10:00N 50°54' W 127°24'296.1 010 / 31003.0 4.9 3.9
2018-Apr-16 09:58N 50°55' W 127°21'0 0.0
2018-Apr-16 09:28N 50°55' W 127°21'2 4.1
2018-Apr-16 09:00N 50°54' W 127°24'297.7 010 / 11003.7 5.3 4.1
2018-Apr-16 08:58N 50°55' W 127°21'0 0.0
2018-Apr-16 08:28N 50°55' W 127°21'2 4.1
2018-Apr-16 08:00N 50°54' W 127°24'216.3 350 / 31004.1 5.4 4.5
2018-Apr-16 07:52N 50°55' W 127°21'0 0.0
2018-Apr-16 07:28N 50°55' W 127°21'2 4.1
2018-Apr-16 07:00N 50°54' W 127°24'296.8 010 / 21005.0 5.7 4.3
2018-Apr-16 06:58N 50°55' W 127°21'0 0.0
2018-Apr-16 06:28N 50°55' W 127°21'2 4.1
2018-Apr-16 06:00N 50°54' W 127°24'296.8 330 / 21006.0 6.4 4.6 8.6
2018-Apr-16 05:58N 50°55' W 127°21'0 0.0
2018-Apr-16 05:28N 50°55' W 127°21'2 4.1
2018-Apr-16 05:00N 50°54' W 127°24'2100.9 340 / 41007.1 7.6 5.1 8.7
2018-Apr-16 04:58N 50°55' W 127°21'0 0.0
2018-Apr-16 04:28N 50°55' W 127°21'2 4.1
2018-Apr-16 04:00N 50°54' W 127°24'299.0 310 / 71007.5 7.9 5.1 8.8
2018-Apr-16 03:58N 50°55' W 127°21'0 0.2
2018-Apr-16 03:30N 50°55' W 127°21'3 6.3
2018-Apr-16 03:00N 50°52' W 127°19'2614.2
2018-Apr-16 03:00N 50°54' W 127°18'714.7 300 / 231007.2 8.5 5.9 8.7
2018-Apr-16 02:30N 50°49' W 127°10'612.5
2018-Apr-16 02:00N 50°48' W 127°00'3214.1 300 / 241008.0 8.7 4.5 8.7
2018-Apr-16 01:59N 50°45' W 127°01'612.7
2018-Apr-16 01:30N 50°42' W 126°53'713.1
2018-Apr-16 01:00N 50°36' W 126°48'231.5 310 / 131009.3 8.6 4.8 8.7
2018-Apr-16 00:56N 50°37' W 126°46'611.9
2018-Apr-16 00:27N 50°32' W 126°40'715.1
2018-Apr-16 00:00N 50°30' W 126°30'125.7 270 / 181009.1 8.5 3.9 8.9
2018-Apr-15 23:58N 50°30' W 126°31'1212.3
2018-Apr-15 23:00N 50°30' W 126°12'1312.9 290 / 201009.4 8.5 5.3 8.8
2018-Apr-15 22:00N 50°24' W 125°54'7 8.0 280 / 91010.3 9.3 2.0 8.7
2018-Apr-15 21:08N 50°22' W 125°43'214.9
2018-Apr-15 21:00N 50°24' W 125°42'220.9 260 / 101010.7 8.6 3.6 9.1
2018-Apr-15 20:53N 50°22' W 125°39'410.6
2018-Apr-15 20:30N 50°22' W 125°33'5 9.8
2018-Apr-15 20:00N 50°21' W 125°25'3412.3
2018-Apr-15 20:00N 50°18' W 125°24'3 6.3 310 / 81011.7 8.6 3.0 9.2
2018-Apr-15 19:30N 50°15' W 125°23'612.2
2018-Apr-15 19:00N 50°09' W 125°21'3237.9
2018-Apr-15 19:00N 50°06' W 125°24'611.5 360 / 81012.7 7.9 4.0 9.3
2018-Apr-15 18:30N 50°04' W 125°16'612.5
2018-Apr-15 18:00N 49°59' W 125°11'5344.1
2018-Apr-15 18:00N 49°54' W 125°12'4 9.2 330 / 81012.7 7.4 3.7 9.3
2018-Apr-15 17:30N 49°55' W 125°05'5 9.9
2018-Apr-15 17:00N 49°51' W 124°60'4494.0
2018-Apr-15 17:00N 49°54' W 124°54'511.0 320 / 81013.2 6.4 3.9 9.2
2018-Apr-15 16:30N 49°49' W 124°53'3 6.9
2018-Apr-15 16:00N 49°48' W 124°48'3157.5 310 / 111013.3 5.8 4.9 9.2
2018-Apr-15 15:58N 49°45' W 124°48'4 9.6
2018-Apr-15 15:30N 49°41' W 124°44'5 9.9
2018-Apr-15 15:00N 49°37' W 124°39'2267.1
2018-Apr-15 15:00N 49°36' W 124°42'611.2 300 / 131013.2 6.3 4.1 9.1
2018-Apr-15 14:30N 49°34' W 124°34'5 9.2
2018-Apr-15 14:00N 49°30' W 124°30'1323.5 310 / 101013.3 6.9 5.0 9.2
2018-Apr-15 13:59N 49°30' W 124°29'710.6
2018-Apr-15 13:19N 49°26' W 124°20'310.5
2018-Apr-15 13:01N 49°25' W 124°15'2135.7
2018-Apr-15 13:00N 49°24' W 124°12'1211.7 260 / 91013.5 6.2 3.9 9.3
2018-Apr-15 12:00N 49°24' W 123°54'5 8.9 280 / 31013.7 7.7 5.1 9.4
2018-Apr-15 11:23N 49°19' W 123°51'410.6
2018-Apr-15 11:01N 49°18' W 123°45'2109.3
2018-Apr-15 11:00N 49°18' W 123°42'5 8.6 050 / 71014.0 6.9 5.2 9.4
2018-Apr-15 10:27N 49°15' W 123°37'510.7
2018-Apr-15 10:01N 49°11' W 123°32'2114.0
2018-Apr-15 10:00N 49°12' W 123°30'511.2 020 / 71013.9 7.6 6.3 8.9
2018-Apr-15 09:30N 49°07' W 123°27'510.8
2018-Apr-15 09:01N 49°03' W 123°21'3186.6
2018-Apr-15 09:00N 49°06' W 123°18'713.3 160 / 111014.2 7.6 6.0 9.3
2018-Apr-15 08:30N 48°60' W 123°14'510.7
2018-Apr-15 08:00N 48°56' W 123°08'3492.3
2018-Apr-15 08:00N 48°54' W 123°06'3 5.5 180 / 61014.5 7.7 6.0 9.2
2018-Apr-15 07:30N 48°53' W 123°02'510.0
2018-Apr-15 07:01N 48°48' W 122°60'4223.2
2018-Apr-15 07:00N 48°48' W 122°54'816.1 190 / 41014.9 7.9 6.0 8.9
2018-Apr-15 06:30N 48°45' W 123°05'4 8.1
2018-Apr-15 06:00N 48°43' W 123°10'292.5
2018-Apr-15 06:00N 48°42' W 123°12'3 5.4 160 / 81015.0 7.9 6.1 8.9
2018-Apr-15 05:31N 48°41' W 123°15'4 7.9
2018-Apr-15 05:01N 48°37' W 123°14'186.4
2018-Apr-15 05:00N 48°36' W 123°12'3 6.9 140 / 71015.5 7.9 5.7 9.0
2018-Apr-15 04:30N 48°33' W 123°12'5 9.6
2018-Apr-15 04:00N 48°28' W 123°10'2138.9
2018-Apr-15 04:00N 48°30' W 123°12'612.1 130 / 121015.8 8.1 6.2 9.0
2018-Apr-15 03:30N 48°24' W 123°12'4 7.7
2018-Apr-15 03:00N 48°22' W 123°17'2131.4
2018-Apr-15 03:00N 48°24' W 123°18'3 6.7 160 / 91016.2 8.2 6.5 9.1
2018-Apr-15 02:31N 48°23' W 123°23'1 2.5
2018-Apr-15 02:00N 48°24' W 123°24'0 0.0 150 / 61017.0 8.6 7.8
2018-Apr-15 01:00N 48°24' W 123°24'0 0.0 150 / 31017.5 9.2 7.5
2018-Apr-15 00:00N 48°24' W 123°24'0 0.0 150 / 41018.0 9.7 7.1
2018-Apr-14 23:00N 48°24' W 123°24'0 0.0 150 / 51019.2 10.2 7.1
2018-Apr-14 22:00N 48°24' W 123°24'0 0.0 100 / 31019.4 10.3 6.2
2018-Apr-14 21:00N 48°24' W 123°24'0 0.0 140 / 41020.2 9.9 6.4
2018-Apr-14 20:00N 48°24' W 123°24'0 0.0 110 / 41021.1 10.5 5.9
2018-Apr-14 19:00N 48°24' W 123°24'0 0.0 130 / 41022.0 9.5 5.8
2018-Apr-14 18:00N 48°24' W 123°24'0 0.0 160 / 51022.8 9.1 6.6
2018-Apr-14 17:00N 48°24' W 123°24'0 0.0 130 / 41023.0 9.1 6.5 9.3
2018-Apr-14 16:00N 48°24' W 123°24'0 0.0 120 / 41023.3 8.9 6.9 9.4
2018-Apr-14 15:00N 48°24' W 123°24'1 2.3 230 / 21023.5 8.3 5.8 9.3
2018-Apr-14 14:28N 48°25' W 123°24'1 2.5
2018-Apr-14 14:00N 48°24' W 123°24'131.3 270 / 21023.2 7.9 5.2 9.0
2018-Apr-14 13:57N 48°23' W 123°26'2 5.3
2018-Apr-14 13:30N 48°22' W 123°28'0 0.9
2018-Apr-14 13:00N 48°22' W 123°28'2166.1
2018-Apr-14 13:00N 48°24' W 123°30'3 4.9 280 / 41023.3 8.4 5.0 9.0
2018-Apr-14 12:28N 48°22' W 123°27'3 5.3
2018-Apr-14 12:00N 48°24' W 123°30'338.7 120 / 11023.2 8.5 6.2 9.0
2018-Apr-14 11:54N 48°21' W 123°28'1 1.9
2018-Apr-14 11:30N 48°20' W 123°28'1 1.9
2018-Apr-14 11:00N 48°20' W 123°29'2110.6
2018-Apr-14 11:00N 48°18' W 123°30'3 5.7 320 / 141022.8 8.6 5.3 9.0
2018-Apr-14 10:27N 48°21' W 123°28'2 3.7
2018-Apr-14 10:00N 48°22' W 123°27'3372.9
2018-Apr-14 10:00N 48°24' W 123°24'1 2.4 270 / 111022.9 9.4 4.6 9.1
2018-Apr-14 09:30N 48°23' W 123°25'2 3.3
2018-Apr-14 09:00N 48°23' W 123°23'174.2
2018-Apr-14 09:00N 48°24' W 123°24'4 7.9 280 / 201022.5 9.6 4.6 9.1
2018-Apr-14 08:30N 48°23' W 123°18'3 6.1
2018-Apr-14 08:00N 48°24' W 123°14'2101.2
2018-Apr-14 08:00N 48°24' W 123°12'2 3.8 270 / 181022.5 9.6 5.7 9.0
2018-Apr-14 07:30N 48°26' W 123°12'3 5.4
2018-Apr-14 07:00N 48°29' W 123°12'299.9
2018-Apr-14 07:00N 48°30' W 123°12'2 3.7 230 / 131022.5 9.4 6.4 9.1
2018-Apr-14 06:30N 48°32' W 123°13'3 6.5
2018-Apr-14 06:00N 48°35' W 123°14'21249.8
2018-Apr-14 06:00N 48°36' W 123°12'3 6.1 190 / 161021.5 9.4 6.7 9.0
2018-Apr-14 05:30N 48°38' W 123°15'5 9.2
2018-Apr-14 05:00N 48°43' W 123°14'184.7
2018-Apr-14 05:00N 48°42' W 123°12'510.7 200 / 151020.9 9.5 7.5 8.9
2018-Apr-14 04:30N 48°45' W 123°06'5 9.1
2018-Apr-14 04:00N 48°49' W 123°01'1838.1
2018-Apr-14 04:00N 48°48' W 123°00'613.0 200 / 211018.9 10.6 7.2 9.1
2018-Apr-14 03:30N 48°52' W 123°07'4 8.8
2018-Apr-14 03:00N 48°55' W 123°12'1133.9
2018-Apr-14 03:00N 48°54' W 123°12'510.6 190 / 301017.2 10.9 7.4 9.3
2018-Apr-14 02:30N 48°58' W 123°16'4 8.2
2018-Apr-14 02:00N 49°01' W 123°21'21309.2
2018-Apr-14 02:00N 49°00' W 123°24'5 9.3 170 / 251017.0 10.2 8.0 9.3
2018-Apr-14 01:29N 49°05' W 123°23'0 0.4
2018-Apr-14 01:00N 49°04' W 123°23'2178.4
2018-Apr-14 01:00N 49°06' W 123°24'2 3.5 150 / 221018.3 9.9 8.7 9.4
2018-Apr-14 00:30N 49°04' W 123°23'2 3.3
2018-Apr-14 00:00N 49°06' W 123°24'274.1 160 / 241018.4 10.7 8.1 9.4
2018-Apr-13 23:58N 49°04' W 123°23'0 0.1
2018-Apr-13 23:30N 49°04' W 123°23'0 0.2
2018-Apr-13 23:00N 49°04' W 123°23'2112.4
2018-Apr-13 23:00N 49°06' W 123°24'2 3.3 140 / 201017.8 10.3 7.8 9.5
2018-Apr-13 22:30N 49°05' W 123°23'3 5.6
2018-Apr-13 22:00N 49°06' W 123°27'2185.9
2018-Apr-13 22:00N 49°06' W 123°24'4 7.5 140 / 291017.9 10.1 7.9 9.4
2018-Apr-13 21:29N 49°07' W 123°29'0 0.6
2018-Apr-13 21:00N 49°07' W 123°29'2126.0
2018-Apr-13 21:00N 49°06' W 123°30'2 3.6 140 / 311017.7 9.9 7.2 9.3
2018-Apr-13 20:30N 49°07' W 123°28'1 1.1
2018-Apr-13 20:01N 49°07' W 123°28'2110.1
2018-Apr-13 20:00N 49°06' W 123°30'2 4.4 130 / 161018.5 9.2 7.0 9.3
2018-Apr-13 19:30N 49°07' W 123°27'1 1.2
2018-Apr-13 19:00N 49°06' W 123°26'2230.2
2018-Apr-13 19:00N 49°06' W 123°24'1 1.9 110 / 81018.8 8.4 7.1 9.3
2018-Apr-13 18:30N 49°06' W 123°25'4 7.5
2018-Apr-13 18:00N 49°10' W 123°24'2136.9
2018-Apr-13 18:00N 49°12' W 123°24'4 7.8 080 / 191019.0 7.0 6.2 9.5
2018-Apr-13 17:30N 49°15' W 123°22'2 3.8
2018-Apr-13 17:00N 49°17' W 123°19'2128.2
2018-Apr-13 17:00N 49°18' W 123°18'2 3.4 090 / 151019.2 6.8 5.5 9.7
2018-Apr-13 16:30N 49°17' W 123°19'2 3.3
2018-Apr-13 16:00N 49°18' W 123°18'2988.2 080 / 171019.2 6.6 5.4 9.6
2018-Apr-13 15:59N 49°17' W 123°19'0 0.1
2018-Apr-13 15:30N 49°17' W 123°19'0 0.2
2018-Apr-13 15:00N 49°17' W 123°19'21162.9
2018-Apr-13 15:00N 49°18' W 123°18'2 3.2 090 / 191019.4 7.3 5.1 9.6
2018-Apr-13 14:30N 49°17' W 123°19'2 4.1
2018-Apr-13 14:00N 49°16' W 123°22'2517.7
2018-Apr-13 14:00N 49°18' W 123°24'1 3.1 120 / 221019.0 7.7 5.1 9.9
2018-Apr-13 13:30N 49°17' W 123°24'1 2.3
2018-Apr-13 13:00N 49°17' W 123°26'2143.2
2018-Apr-13 13:00N 49°18' W 123°24'3 5.5 130 / 201018.8 7.5 6.0 9.8
2018-Apr-13 12:30N 49°17' W 123°28'1 1.8
2018-Apr-13 12:00N 49°17' W 123°29'1293.2
2018-Apr-13 12:00N 49°18' W 123°30'2 3.1 120 / 271018.1 7.6 5.3 9.5
2018-Apr-13 11:30N 49°17' W 123°32'2 4.5
2018-Apr-13 11:00N 49°18' W 123°35'028.6
2018-Apr-13 11:00N 49°18' W 123°36'2 3.8 140 / 271018.2 8.0 5.5 9.6
2018-Apr-13 10:30N 49°19' W 123°39'2 4.2
2018-Apr-13 10:00N 49°17' W 123°37'1293.3
2018-Apr-13 10:00N 49°18' W 123°36'3 6.7 120 / 271018.3 8.5 6.3 9.4
2018-Apr-13 09:29N 49°15' W 123°34'4 7.9
2018-Apr-13 09:00N 49°12' W 123°30'2180.9 120 / 161019.0 8.7 5.0 9.4
2018-Apr-13 08:59N 49°13' W 123°32'2 4.2
2018-Apr-13 08:30N 49°11' W 123°31'2 4.1
2018-Apr-13 08:00N 49°10' W 123°29'2358.0
2018-Apr-13 08:00N 49°12' W 123°30'4 8.9 130 / 171019.6 9.5 3.8 9.4
2018-Apr-13 07:30N 49°08' W 123°27'3 5.7
2018-Apr-13 07:00N 49°06' W 123°24'1208.1 160 / 111019.4 9.1 2.4 9.2
2018-Apr-13 06:59N 49°07' W 123°25'510.6
2018-Apr-13 06:30N 49°03' W 123°19'510.7
2018-Apr-13 06:00N 48°60' W 123°13'6856.0
2018-Apr-13 06:00N 48°54' W 123°12'4 7.5 190 / 91019.2 9.3 2.1 9.4
2018-Apr-13 05:28N 48°56' W 123°07'5 9.7
2018-Apr-13 05:00N 48°53' W 123°02'2152.1
2018-Apr-13 05:00N 48°54' W 123°00'611.7 200 / 111019.4 9.4 2.0 9.3
2018-Apr-13 04:26N 48°48' W 122°60'4 8.6
2018-Apr-13 04:00N 48°45' W 123°04'3220.0
2018-Apr-13 04:00N 48°42' W 123°06'2 4.4 230 / 111018.4 10.0 3.0 9.1
2018-Apr-13 03:30N 48°43' W 123°09'5 9.1
2018-Apr-13 03:00N 48°41' W 123°15'2126.5
2018-Apr-13 03:00N 48°42' W 123°12'5 9.9 230 / 111017.8 9.9 1.6 9.0
2018-Apr-13 02:30N 48°37' W 123°13'4 8.4
2018-Apr-13 02:00N 48°33' W 123°12'3229.5
2018-Apr-13 02:00N 48°36' W 123°12'715.4 220 / 101017.5 10.7 2.0 9.2
2018-Apr-13 01:30N 48°29' W 123°10'5 9.1
2018-Apr-13 01:00N 48°24' W 123°11'029.5
2018-Apr-13 01:00N 48°24' W 123°12'4 8.5 240 / 161017.5 10.4 5.1 9.1
2018-Apr-13 00:30N 48°22' W 123°17'5 9.3
2018-Apr-13 00:00N 48°24' W 123°24'0 0.2 230 / 141016.2 9.8 4.0 9.2
2018-Apr-12 23:06N 48°24' W 123°24'111.0
2018-Apr-12 23:00N 48°23' W 123°23'1921.5
2018-Apr-12 23:00N 48°24' W 123°24'815.5 240 / 111015.7 8.6 3.9 9.4
2018-Apr-12 22:30N 48°18' W 123°18'4 7.5
2018-Apr-12 22:00N 48°18' W 123°24'314.6 250 / 111014.8 8.3 4.0 9.4
2018-Apr-12 21:47N 48°19' W 123°20'413.3
2018-Apr-12 21:31N 48°22' W 123°16'4 8.3
2018-Apr-12 21:00N 48°18' W 123°12'2118.6 230 / 21014.2 7.8 3.9 9.3
2018-Apr-12 20:58N 48°20' W 123°13'1211.8
2018-Apr-12 20:00N 48°18' W 123°30'1212.0 160 / 61013.5 7.9 3.6 9.4
2018-Apr-12 19:00N 48°18' W 123°48'8 8.0 280 / 61012.6 8.0 3.4 9.6
2018-Apr-12 18:00N 48°18' W 123°36'8 8.0 090 / 61011.9 7.5 4.0 9.0
2018-Apr-12 17:00N 48°18' W 123°24'7 2.3 130 / 51011.0 6.9 3.6 9.0
2018-Apr-12 13:55N 48°25' W 123°23'0 0.0
2018-Apr-12 13:28N 48°25' W 123°23'0 0.0
2018-Apr-12 12:58N 48°25' W 123°23'0 0.0
2018-Apr-12 12:28N 48°25' W 123°23'1 2.8
2018-Apr-12 12:00N 48°24' W 123°24'140.2 260 / 101008.0 7.5 3.6
2018-Apr-12 11:58N 48°25' W 123°23'0 0.0
2018-Apr-12 11:28N 48°25' W 123°23'0 0.0
2018-Apr-12 10:58N 48°25' W 123°23'0 0.0
2018-Apr-12 10:28N 48°25' W 123°23'0 0.0
2018-Apr-12 09:58N 48°25' W 123°23'0 0.0
2018-Apr-12 09:28N 48°25' W 123°23'0 0.0
2018-Apr-12 08:58N 48°25' W 123°23'0 0.0
2018-Apr-12 08:28N 48°25' W 123°23'0 0.0
2018-Apr-12 07:52N 48°25' W 123°23'0 0.0
2018-Apr-12 07:28N 48°25' W 123°23'0 0.0
2018-Apr-12 06:58N 48°25' W 123°23'0 0.0
2018-Apr-12 06:28N 48°25' W 123°23'1 2.8
2018-Apr-12 06:00N 48°24' W 123°24'1 5.6 260 / 101004.4 7.4 4.5
2018-Apr-12 05:46N 48°25' W 123°23'1 0.2
2018-Apr-12 00:00N 48°24' W 123°24'0 0.0 130 / 121002.0 9.5 5.1
2018-Apr-11 18:00N 48°24' W 123°24'1 0.4 130 / 61004.7 10.0 5.6
2018-Apr-11 14:16N 48°25' W 123°23'0 0.0
2018-Apr-11 13:58N 48°25' W 123°23'0 0.0
2018-Apr-11 13:26N 48°25' W 123°23'0 0.0
2018-Apr-11 12:58N 48°25' W 123°23'0 0.0
2018-Apr-11 12:28N 48°25' W 123°23'1 2.7
2018-Apr-11 12:00N 48°24' W 123°24'174.6 010 / 31009.4 9.5 6.4
2018-Apr-11 11:58N 48°25' W 123°23'0 0.0
2018-Apr-11 11:28N 48°25' W 123°23'0 0.0
2018-Apr-11 10:58N 48°25' W 123°23'0 0.0
2018-Apr-11 10:28N 48°25' W 123°23'0 0.0
2018-Apr-11 09:58N 48°25' W 123°23'0 0.0
2018-Apr-11 09:16N 48°25' W 123°23'0 0.0
2018-Apr-11 08:58N 48°25' W 123°23'0 0.0
2018-Apr-11 08:28N 48°25' W 123°23'0 0.0
2018-Apr-11 07:58N 48°25' W 123°23'0 0.0
2018-Apr-11 07:28N 48°25' W 123°23'0 0.0
2018-Apr-11 06:58N 48°25' W 123°23'0 0.0
2018-Apr-11 06:25N 48°25' W 123°23'1 3.0
2018-Apr-11 06:00N 48°24' W 123°24'175.8 270 / 61011.8 10.9 3.8
2018-Apr-11 05:58N 48°25' W 123°23'1 0.2
2018-Apr-11 00:00N 48°24' W 123°24'   260 / 151011.8 13.4 2.4

Dump ship's entire track history